Time;durP1;ratioP1;P1;durP2;ratioP2;P2;SDS_P1;SDS_P2;PMS_P1;PMS_P2;Temp;Humidity;BMP_temperature;BMP_pressure;BME280_temperature;BME280_humidity;BME280_pressure;Samples;Min_cycle;Max_cycle;Signal;HPM_P1;HPM_P2
2022/09/19 00:01:55;;;;;;;6.97;3.53;;;;;;;9.95;83.68;94687.66;5109332;28;20269;-78
2022/09/19 00:04:26;;;;;;;3.50;3.20;;;;;;;9.43;84.30;94602.81;5109338;28;20232;-77
2022/09/19 00:06:54;;;;;;;4.07;3.17;;;;;;;10.11;84.76;94717.78;5109486;28;20231;-76
2022/09/19 00:09:25;;;;;;;4.20;3.13;;;;;;;10.03;84.57;94695.47;5109061;28;20196;-78
2022/09/19 00:11:53;;;;;;;4.40;3.00;;;;;;;9.90;84.77;94682.16;5109532;28;20201;-78
2022/09/19 00:14:23;;;;;;;3.40;2.80;;;;;;;9.96;85.05;94688.47;5109539;28;20189;-76
2022/09/19 00:16:55;;;;;;;5.23;3.10;;;;;;;10.08;84.39;94696.81;5109577;28;20276;-77
2022/09/19 00:19:23;;;;;;;4.60;2.97;;;;;;;10.08;84.66;94696.81;5109600;28;20209;-77
2022/09/19 00:21:55;;;;;;;3.37;3.00;;;;;;;10.03;84.82;94687.78;5109239;28;20193;-77
2022/09/19 00:27:09;;;;;;;2.90;2.60;;;;;;;10.00;84.72;94698.28;5109441;28;20277;-79
2022/09/19 00:29:38;;;;;;;4.70;3.17;;;;;;;9.93;84.77;94692.09;5109077;28;20271;-78
2022/09/19 00:32:07;;;;;;;3.23;2.73;;;;;;;10.02;84.89;94700.72;5109113;28;20220;-76
2022/09/19 00:34:36;;;;;;;3.67;2.97;;;;;;;9.85;85.00;94676.63;5108981;28;20267;-77
2022/09/19 00:37:03;;;;;;;4.20;2.87;;;;;;;10.00;84.79;94703.38;5109620;28;20200;-77
2022/09/19 00:39:30;;;;;;;2.60;2.37;;;;;;;10.01;83.94;94702.44;5108939;28;20184;-75
2022/09/19 00:41:57;;;;;;;3.33;2.37;;;;;;;9.95;83.30;94702.19;5109141;28;20178;-75
2022/09/19 00:44:53;;;;;;;2.40;2.20;;;;;;;9.92;82.70;94703.25;5109083;28;20213;-76
2022/09/19 00:47:24;;;;;;;2.60;2.27;;;;;;;9.86;82.58;94702.97;5110448;28;20200;-76
2022/09/19 00:49:55;;;;;;;2.83;2.20;;;;;;;9.66;82.66;94681.72;5112598;28;20510;-78
2022/09/19 00:52:29;;;;;;;2.27;2.10;;;;;;;9.68;83.92;94707.94;5112799;28;20248;-76
2022/09/19 00:54:57;;;;;;;3.20;2.10;;;;;;;9.63;83.99;94707.50;5112743;28;20721;-77
2022/09/19 00:57:33;;;;;;;2.70;2.30;;;;;;;9.61;83.69;94707.63;5112277;28;20272;-77
2022/09/19 01:00:00;;;;;;;2.30;2.10;;;;;;;9.57;83.96;94702.94;5112762;28;20184;-77
2022/09/19 01:02:28;;;;;;;2.40;2.20;;;;;;;9.55;83.78;94693.66;5112460;28;20597;-76
2022/09/19 01:04:56;;;;;;;4.67;3.67;;;;;;;9.60;83.71;94695.81;5112557;28;20252;-76
2022/09/19 01:07:35;;;;;;;4.20;2.93;;;;;;;9.46;83.77;94679.13;5112380;28;20217;-79
2022/09/19 01:10:14;;;;;;;7.83;2.97;;;;;;;9.49;84.11;94688.25;5112634;28;20189;-77
2022/09/19 01:12:51;;;;;;;5.87;3.20;;;;;;;9.30;84.11;94671.97;5112416;28;20554;-75
2022/09/19 01:15:36;;;;;;;5.50;3.27;;;;;;;9.47;84.65;94697.81;5112898;28;20210;-77
2022/09/19 01:18:04;;;;;;;4.43;3.40;;;;;;;9.35;84.73;94686.09;5112519;28;20298;-75
2022/09/19 01:21:37;;;;;;;3.40;3.10;;;;;;;9.27;85.07;94671.41;5112210;28;20634;-76
2022/09/19 01:24:28;;;;;;;3.93;3.47;;;;;;;9.44;84.96;94705.72;5112022;28;20307;-76
2022/09/19 01:27:18;;;;;;;4.73;3.80;;;;;;;9.38;85.46;94698.59;5112283;28;20257;-75
2022/09/19 01:29:50;;;;;;;3.87;3.57;;;;;;;9.41;84.98;94685.53;5112557;28;20673;-77
2022/09/19 01:32:22;;;;;;;4.10;3.50;;;;;;;9.22;84.94;94656.50;5112943;28;20188;-77
2022/09/19 01:34:53;;;;;;;5.20;3.57;;;;;;;9.37;85.24;94679.91;5113706;28;20197;-77
2022/09/19 01:37:27;;;;;;;4.57;3.40;;;;;;;9.24;85.39;94661.47;5124635;28;20186;-79
2022/09/19 01:39:57;;;;;;;4.40;3.50;;;;;;;9.31;85.46;94680.44;5125381;28;20668;-77
2022/09/19 01:42:25;;;;;;;4.27;3.50;;;;;;;9.12;85.48;94658.22;5117396;28;20200;-77
2022/09/19 01:44:53;;;;;;;11.03;4.63;;;;;;;9.26;85.65;94665.50;5112893;28;20220;-78
2022/09/19 01:47:27;;;;;;;3.93;3.53;;;;;;;9.36;85.81;94678.28;5112599;28;20262;-77
2022/09/19 01:50:02;;;;;;;5.00;3.83;;;;;;;9.05;84.88;94637.50;5112228;28;20185;-76
2022/09/19 01:52:41;;;;;;;3.13;2.83;;;;;;;8.97;84.89;94621.25;5111871;28;20193;-76
2022/09/19 01:55:15;;;;;;;7.07;3.43;;;;;;;9.23;85.38;94683.63;5112283;28;20184;-78
2022/09/19 01:57:52;;;;;;;4.87;3.70;;;;;;;9.19;85.66;94674.59;5111634;28;20184;-77
2022/09/19 02:00:23;;;;;;;4.47;3.47;;;;;;;9.16;85.71;94666.44;5111007;28;20203;-76
2022/09/19 02:03:06;;;;;;;4.40;4.00;;;;;;;9.20;85.02;94676.25;5111170;28;20197;-75
2022/09/19 02:05:41;;;;;;;6.13;3.50;;;;;;;9.16;85.57;94682.53;5111693;28;20189;-77
2022/09/19 02:08:15;;;;;;;4.40;4.00;;;;;;;8.89;85.50;94647.38;5112483;28;20196;-75
2022/09/19 02:10:49;;;;;;;7.90;3.50;;;;;;;9.10;85.61;94682.25;5111867;28;20196;-77
2022/09/19 02:13:21;;;;;;;9.43;4.07;;;;;;;9.09;85.53;94668.69;5111679;28;20249;-78
2022/09/19 02:15:59;;;;;;;5.93;4.20;;;;;;;9.08;85.65;94674.72;5111623;28;20628;-77
2022/09/19 02:18:30;;;;;;;6.47;4.23;;;;;;;9.11;85.69;94674.47;5111589;28;20224;-78
2022/09/19 02:21:03;;;;;;;5.80;3.87;;;;;;;9.02;85.88;94660.75;5111735;28;20195;-76
2022/09/19 02:23:33;;;;;;;4.53;3.60;;;;;;;9.03;85.66;94656.44;5111282;28;20201;-76
2022/09/19 02:26:02;;;;;;;6.50;3.90;;;;;;;9.02;86.43;94665.00;5111731;28;20197;-75
2022/09/19 02:28:37;;;;;;;4.53;3.90;;;;;;;8.94;86.03;94655.47;5111097;28;20218;-76
2022/09/19 02:31:06;;;;;;;9.47;3.90;;;;;;;9.02;85.88;94658.19;5111368;28;20192;-75
2022/09/19 02:33:35;;;;;;;6.60;4.30;;;;;;;9.03;85.80;94669.22;5111191;28;20185;-76
2022/09/19 02:36:14;;;;;;;4.37;3.60;;;;;;;8.98;86.04;94661.09;5111125;28;20191;-78
2022/09/19 02:38:49;;;;;;;4.23;3.83;;;;;;;8.97;86.13;94659.50;5110392;28;20255;-76
2022/09/19 02:41:23;;;;;;;7.27;3.80;;;;;;;8.98;85.99;94658.56;5111120;28;20557;-77
2022/09/19 02:44:00;;;;;;;5.23;3.60;;;;;;;8.97;85.69;94656.94;5110782;28;20212;-76
2022/09/19 02:46:36;;;;;;;4.17;2.97;;;;;;;8.92;85.56;94659.88;5110639;28;20538;-77
2022/09/19 02:49:12;;;;;;;3.67;3.10;;;;;;;8.90;85.68;94664.31;5110411;28;20193;-77
2022/09/19 02:51:44;;;;;;;4.77;2.57;;;;;;;8.56;85.20;94591.59;5110637;28;20192;-76
2022/09/19 02:54:17;;;;;;;2.70;2.50;;;;;;;9.01;84.65;94664.22;5110984;28;20188;-76
2022/09/19 02:56:47;;;;;;;3.00;2.27;;;;;;;8.96;84.41;94652.78;5110131;28;20197;-78
2022/09/19 02:59:20;;;;;;;6.37;2.60;;;;;;;8.90;84.21;94646.47;5110826;28;20238;-76
2022/09/19 03:01:53;;;;;;;2.97;2.37;;;;;;;8.86;84.78;94660.41;5110513;28;20189;-77
2022/09/19 03:04:25;;;;;;;5.23;2.60;;;;;;;8.72;85.13;94650.53;5110541;28;20232;-76
2022/09/19 03:06:59;;;;;;;5.23;2.67;;;;;;;8.56;85.03;94628.06;5109887;28;20236;-77
2022/09/19 03:09:29;;;;;;;4.07;2.80;;;;;;;8.81;85.41;94667.63;5110085;28;20197;-76
2022/09/19 03:12:00;;;;;;;4.33;2.47;;;;;;;8.84;85.05;94661.47;5110510;28;20177;-76
2022/09/19 03:14:30;;;;;;;4.53;2.80;;;;;;;8.72;85.23;94653.09;5110403;28;20274;-77
2022/09/19 03:17:01;;;;;;;3.70;2.40;;;;;;;8.79;85.54;94666.94;5110472;28;20247;-76
2022/09/19 03:19:30;;;;;;;2.70;2.50;;;;;;;8.65;85.96;94647.69;5112018;28;20189;-77
2022/09/19 03:21:58;;;;;;;3.30;2.80;;;;;;;8.56;86.03;94643.38;5111732;28;20271;-78
2022/09/19 03:24:27;;;;;;;4.77;2.90;;;;;;;8.53;86.27;94641.06;5109841;28;20260;-78
2022/09/19 03:26:53;;;;;;;12.07;3.10;;;;;;;8.65;86.14;94663.00;5110103;28;20193;-79
2022/09/19 03:29:20;;;;;;;3.00;2.70;;;;;;;8.42;86.56;94628.38;5110326;28;20185;-77
2022/09/19 03:31:50;;;;;;;4.97;3.20;;;;;;;8.58;86.46;94663.63;5110238;28;20181;-77
2022/09/19 03:34:19;;;;;;;3.67;2.90;;;;;;;8.61;86.51;94671.81;5110390;28;20586;-78
2022/09/19 03:36:45;;;;;;;3.20;2.80;;;;;;;8.59;86.70;94668.59;5110226;28;20272;-78
2022/09/19 03:39:12;;;;;;;4.00;2.87;;;;;;;8.58;86.71;94661.06;5110066;28;20181;-77
2022/09/19 03:41:39;;;;;;;3.60;3.10;;;;;;;8.59;86.39;94649.94;5109464;28;20266;-76
2022/09/19 03:44:12;;;;;;;4.37;3.60;;;;;;;8.57;86.58;94644.97;5111030;28;20544;-77
2022/09/19 03:46:39;;;;;;;2.97;2.60;;;;;;;8.57;87.09;94639.06;5109447;28;20271;-76
2022/09/19 03:49:06;;;;;;;5.27;3.07;;;;;;;8.55;87.04;94639.22;5109781;28;20185;-77
2022/09/19 03:51:34;;;;;;;6.17;3.73;;;;;;;8.53;86.66;94631.66;5109368;28;20188;-76
2022/09/19 03:54:01;;;;;;;3.90;2.93;;;;;;;8.53;86.86;94636.78;5109310;28;20656;-76
2022/09/19 03:56:28;;;;;;;4.23;2.67;;;;;;;8.55;86.59;94634.13;5109896;28;20196;-77
2022/09/19 03:58:55;;;;;;;4.00;2.70;;;;;;;8.56;86.98;94637.47;5110375;28;20186;-78
2022/09/19 04:01:22;;;;;;;3.30;3.00;;;;;;;8.43;86.71;94620.63;5110512;28;20200;-77
2022/09/19 04:03:50;;;;;;;3.67;2.70;;;;;;;8.57;87.24;94634.78;5109930;28;20203;-76
2022/09/19 04:06:17;;;;;;;4.50;3.10;;;;;;;8.56;87.03;94630.63;5109780;28;20687;-76
2022/09/19 04:08:47;;;;;;;4.73;3.20;;;;;;;8.47;86.95;94608.44;5109025;28;20192;-77
2022/09/19 04:11:16;;;;;;;3.00;2.70;;;;;;;8.46;87.16;94622.94;5110099;28;20204;-76
2022/09/19 04:13:42;;;;;;;7.90;2.73;;;;;;;8.52;87.30;94631.81;5108713;28;20211;-79
2022/09/19 04:16:10;;;;;;;2.67;2.40;;;;;;;8.38;86.87;94611.75;5109370;28;20656;-76
2022/09/19 04:18:41;;;;;;;4.70;2.83;;;;;;;8.52;87.31;94634.34;5109644;28;20196;-78
2022/09/19 04:21:08;;;;;;;3.67;2.97;;;;;;;8.50;87.47;94633.66;5109540;28;20211;-76
2022/09/19 04:23:35;;;;;;;3.80;2.97;;;;;;;8.53;87.67;94638.50;5112759;28;20644;-79
2022/09/19 04:26:04;;;;;;;4.10;3.00;;;;;;;8.55;87.65;94629.03;5113114;28;20216;-79
2022/09/19 04:28:32;;;;;;;4.10;3.37;;;;;;;8.50;87.59;94615.81;5112740;28;20636;-77
2022/09/19 04:30:59;;;;;;;5.40;3.47;;;;;;;8.60;87.39;94628.63;5112804;28;20274;-76
2022/09/19 04:33:26;;;;;;;3.83;3.20;;;;;;;8.62;87.51;94632.66;5115735;28;20189;-77
2022/09/19 04:35:57;;;;;;;6.70;3.93;;;;;;;8.64;87.75;94632.53;5113160;28;20209;-79
2022/09/19 04:38:25;;;;;;;5.27;3.83;;;;;;;8.67;87.56;94632.28;5094839;28;20193;-76
2022/09/19 04:40:56;;;;;;;4.40;4.00;;;;;;;8.73;87.40;94624.13;5112459;28;20269;-77
2022/09/19 04:43:26;;;;;;;5.83;3.50;;;;;;;8.53;87.60;94590.91;5113280;28;20670;-79
2022/09/19 04:45:54;;;;;;;5.60;4.03;;;;;;;8.82;87.80;94630.19;5112643;28;20217;-80
2022/09/19 04:48:22;;;;;;;5.73;3.60;;;;;;;8.97;86.95;94634.00;5113370;28;20339;-78
2022/09/19 04:50:50;;;;;;;4.80;4.00;;;;;;;9.01;86.62;94628.50;5112790;28;20208;-76
2022/09/19 04:53:18;;;;;;;8.73;3.97;;;;;;;8.77;86.18;94598.25;5113244;28;20678;-77
2022/09/19 04:55:49;;;;;;;4.40;3.57;;;;;;;9.04;86.37;94625.69;5112958;28;20739;-78
2022/09/19 04:58:16;;;;;;;8.23;3.60;;;;;;;9.16;86.36;94623.06;5113556;28;20212;-79
2022/09/19 05:00:50;;;;;;;6.47;3.63;;;;;;;9.32;86.07;94614.88;5113019;28;20185;-78
2022/09/19 05:03:19;;;;;;;5.03;3.30;;;;;;;9.37;85.29;94582.09;5113314;28;20192;-75
2022/09/19 05:05:51;;;;;;;4.97;3.33;;;;;;;9.97;84.38;94632.16;5112199;28;20224;-78
2022/09/19 05:08:20;;;;;;;6.87;4.03;;;;;;;10.26;83.45;94627.00;5113031;28;20193;-76
2022/09/19 05:10:48;;;;;;;5.43;3.93;;;;;;;10.37;81.82;94587.72;5112590;28;20185;-77
2022/09/19 05:13:15;;;;;;;4.03;3.63;;;;;;;11.09;80.26;94636.56;5113412;28;20189;-77
2022/09/19 05:15:46;;;;;;;6.00;3.60;;;;;;;10.81;78.43;94524.00;5112589;28;20189;-80
2022/09/19 05:18:12;;;;;;;8.40;3.90;;;;;;;11.92;75.98;94635.53;5112786;28;20624;-76
2022/09/19 05:20:40;;;;;;;6.23;4.07;;;;;;;12.07;75.62;94605.06;5112342;28;20652;-76
2022/09/19 05:23:06;;;;;;;9.73;4.53;;;;;;;12.66;74.04;94644.56;5111975;28;20656;-77
2022/09/19 05:25:38;;;;;;;7.90;3.60;;;;;;;13.14;71.78;94648.34;5112594;28;20211;-76
2022/09/19 05:28:06;;;;;;;7.80;3.80;;;;;;;13.50;69.74;94651.53;5112616;28;20216;-79
2022/09/19 05:30:33;;;;;;;6.70;3.97;;;;;;;13.75;68.16;94652.41;5112218;28;20193;-78
2022/09/19 05:33:02;;;;;;;11.00;5.00;;;;;;;13.95;66.28;94650.34;5111732;28;20271;-76
2022/09/19 05:35:29;;;;;;;7.17;3.57;;;;;;;14.06;65.59;94662.88;5112448;28;20240;-78
2022/09/19 05:37:56;;;;;;;6.93;3.70;;;;;;;14.15;65.68;94660.31;5111859;28;20245;-77
2022/09/19 05:40:23;;;;;;;6.77;3.60;;;;;;;14.22;64.90;94653.56;5112290;28;20185;-78
2022/09/19 05:42:50;;;;;;;11.53;4.20;;;;;;;14.20;64.46;94658.06;5111898;28;20196;-77
2022/09/19 05:45:17;;;;;;;10.63;4.40;;;;;;;13.83;64.98;94654.19;5112298;28;20221;-76
2022/09/19 05:47:44;;;;;;;10.83;4.43;;;;;;;13.68;66.00;94658.31;5111874;28;20189;-78
2022/09/19 05:50:20;;;;;;;10.23;5.70;;;;;;;13.80;66.21;94657.84;5112327;28;20679;-76
2022/09/19 05:55:31;;;;;;;7.77;4.33;;;;;;;13.93;64.97;94648.88;5112235;28;20728;-77
2022/09/19 05:57:59;;;;;;;8.33;4.87;;;;;;;13.79;65.53;94640.03;5111652;28;20269;-76
2022/09/19 06:00:28;;;;;;;8.27;4.77;;;;;;;13.87;65.11;94629.78;5112325;28;20200;-77
2022/09/19 06:02:56;;;;;;;7.33;5.17;;;;;;;14.00;64.88;94647.28;5111769;28;20197;-77
2022/09/19 06:05:25;;;;;;;10.40;4.00;;;;;;;14.04;65.00;94651.16;5112004;28;20228;-78
2022/09/19 06:07:54;;;;;;;9.20;4.73;;;;;;;14.11;64.70;94648.72;5110409;28;20216;-77
2022/09/19 06:10:20;;;;;;;8.50;4.30;;;;;;;13.98;64.64;94634.59;5111608;28;20217;-76
2022/09/19 06:12:47;;;;;;;5.07;3.83;;;;;;;14.03;64.59;94628.97;5110861;28;20711;-77
2022/09/19 06:15:14;;;;;;;9.27;5.13;;;;;;;14.16;64.35;94639.59;5111815;28;20181;-78
2022/09/19 06:17:41;;;;;;;10.57;4.53;;;;;;;14.53;63.07;94659.69;5111497;28;20229;-77
2022/09/19 06:20:09;;;;;;;7.17;3.87;;;;;;;14.69;62.63;94656.28;5109791;28;20220;-78
2022/09/19 06:22:37;;;;;;;15.03;4.33;;;;;;;14.90;62.16;94660.13;5110113;28;20560;-79
2022/09/19 06:25:05;;;;;;;9.90;4.87;;;;;;;15.23;60.84;94655.66;5111336;28;20205;-77
2022/09/19 06:27:32;;;;;;;12.90;5.03;;;;;;;15.39;60.38;94665.09;5111197;28;20204;-78
2022/09/19 06:29:58;;;;;;;7.30;4.07;;;;;;;15.59;60.41;94657.75;5093428;28;20182;-79
2022/09/19 06:32:26;;;;;;;10.17;3.97;;;;;;;16.01;59.57;94655.59;5091097;28;20289;-78
2022/09/19 06:34:53;;;;;;;5.60;4.03;;;;;;;16.48;58.13;94656.38;5095971;28;20204;-76
2022/09/19 06:37:20;;;;;;;8.60;4.50;;;;;;;16.73;56.23;94644.06;5110161;28;20418;-76
2022/09/19 06:39:49;;;;;;;10.27;4.63;;;;;;;16.91;55.37;94625.63;5110511;28;20196;-77
2022/09/19 06:42:15;;;;;;;13.33;5.10;;;;;;;17.24;53.86;94654.50;5105764;28;20181;-78
2022/09/19 06:44:42;;;;;;;10.30;5.13;;;;;;;17.27;53.84;94661.88;5093985;28;20244;-78
2022/09/19 06:47:09;;;;;;;8.57;5.07;;;;;;;17.29;53.74;94658.16;5108106;28;20185;-79
2022/09/19 06:49:36;;;;;;;7.40;5.03;;;;;;;17.40;53.75;94659.50;5090332;28;20182;-78
2022/09/19 06:52:03;;;;;;;5.63;4.97;;;;;;;17.37;56.23;94656.47;5103420;28;20277;-75
2022/09/19 06:54:31;;;;;;;8.27;4.33;;;;;;;17.54;56.80;94650.91;5110834;28;20220;-76
2022/09/19 06:56:59;;;;;;;6.43;4.70;;;;;;;17.82;54.62;94650.22;5110229;28;20188;-77
2022/09/19 06:59:26;;;;;;;8.70;5.17;;;;;;;18.15;53.06;94652.34;5093106;28;20190;-78
2022/09/19 07:01:53;;;;;;;7.13;4.43;;;;;;;18.30;52.24;94632.34;5089140;28;20193;-76
2022/09/19 07:04:20;;;;;;;8.60;3.97;;;;;;;18.62;51.20;94654.34;5089992;28;20194;-77
2022/09/19 07:06:47;;;;;;;4.37;3.87;;;;;;;18.83;50.73;94634.59;5089781;28;20261;-77
2022/09/19 07:09:14;;;;;;;4.17;3.63;;;;;;;19.28;48.88;94653.97;5089671;28;20206;-77
2022/09/19 07:11:43;;;;;;;5.43;3.80;;;;;;;19.41;49.13;94646.25;5107075;28;20193;-76
2022/09/19 07:14:13;;;;;;;10.87;3.90;;;;;;;19.42;48.12;94639.28;5111438;28;20280;-76
2022/09/19 07:16:39;;;;;;;7.20;3.80;;;;;;;19.36;49.02;94635.66;5111104;28;20192;-77
2022/09/19 07:19:06;;;;;;;3.83;3.40;;;;;;;19.57;48.83;94633.97;5111108;28;20181;-79
2022/09/19 07:21:33;;;;;;;4.17;3.57;;;;;;;19.78;49.06;94624.28;5110748;28;20552;-75
2022/09/19 07:24:01;;;;;;;6.50;3.30;;;;;;;20.21;47.62;94647.31;5110117;28;20626;-77
2022/09/19 07:26:28;;;;;;;3.30;3.00;;;;;;;20.40;45.87;94634.53;5110256;28;20220;-77
2022/09/19 07:28:55;;;;;;;9.13;3.37;;;;;;;20.34;45.69;94604.97;5110339;28;20196;-77
2022/09/19 07:31:23;;;;;;;4.47;3.27;;;;;;;20.66;45.83;94636.34;5109989;28;20178;-75
2022/09/19 07:33:50;;;;;;;8.90;3.83;;;;;;;20.73;45.70;94640.56;5090098;28;20185;-78
2022/09/19 07:36:21;;;;;;;12.77;3.55;;;;;;;20.66;44.47;94642.34;5096734;28;20208;-78
2022/09/19 07:38:48;;;;;;;5.35;3.45;;;;;;;20.53;45.18;94629.38;5109624;28;20193;-77
2022/09/19 07:41:17;;;;;;;5.47;3.60;;;;;;;20.48;45.16;94624.78;5109864;28;20275;-77
2022/09/19 07:43:49;;;;;;;7.70;3.20;;;;;;;20.46;45.24;94615.53;5109920;28;20272;-77
2022/09/19 07:46:17;;;;;;;4.10;3.30;;;;;;;20.65;44.25;94632.97;5109804;28;20219;-78
2022/09/19 07:48:53;;;;;;;10.40;4.47;;;;;;;20.42;44.77;94620.38;5110043;28;20185;-78
2022/09/19 07:51:20;;;;;;;3.45;3.05;;;;;;;20.56;44.45;94625.59;5109458;28;20191;-78
2022/09/19 07:53:49;;;;;;;3.42;3.13;;;;;;;20.60;43.48;94619.78;5108958;28;20181;-76
2022/09/19 07:56:16;;;;;;;4.47;2.67;;;;;;;20.24;44.08;94581.19;5109082;28;20192;-77
2022/09/19 07:58:43;;;;;;;4.07;3.20;;;;;;;20.47;43.38;94588.59;5109446;28;20597;-78
2022/09/19 08:01:10;;;;;;;7.82;3.20;;;;;;;20.81;43.22;94616.13;5109447;28;20204;-77
2022/09/19 08:03:37;;;;;;;3.60;2.87;;;;;;;20.91;42.84;94611.34;5109026;28;20188;-78
2022/09/19 08:06:05;;;;;;;5.47;3.50;;;;;;;21.01;42.84;94613.50;5109016;28;20239;-77
2022/09/19 08:08:32;;;;;;;4.45;3.05;;;;;;;20.95;41.76;94603.94;5109735;28;20188;-76
2022/09/19 08:11:01;;;;;;;3.47;3.17;;;;;;;20.80;42.32;94601.53;5109044;28;20538;-78
2022/09/19 08:13:29;;;;;;;3.97;3.08;;;;;;;20.83;42.89;94601.16;5109345;28;20279;-76
2022/09/19 08:15:56;;;;;;;5.50;3.13;;;;;;;20.91;42.53;94598.34;5109074;28;20242;-76
2022/09/19 08:18:26;;;;;;;3.05;2.70;;;;;;;20.87;42.32;94571.16;5109178;28;20193;-79
2022/09/19 08:20:53;;;;;;;3.78;3.00;;;;;;;21.14;41.77;94602.28;5104017;28;20272;-77
2022/09/19 08:23:21;;;;;;;4.32;2.83;;;;;;;21.23;41.58;94596.63;5097773;28;20451;-78
2022/09/19 08:25:51;;;;;;;5.68;3.03;;;;;;;21.33;41.11;94598.84;5096141;28;20228;-77
2022/09/19 08:28:19;;;;;;;3.80;2.83;;;;;;;21.44;40.55;94587.78;5094817;28;20224;-77
2022/09/19 08:30:47;;;;;;;3.05;2.72;;;;;;;21.26;40.60;94566.81;5092311;28;20200;-79
2022/09/19 08:33:15;;;;;;;4.95;2.97;;;;;;;21.19;40.95;94566.03;5102749;28;20238;-78
2022/09/19 08:35:43;;;;;;;4.15;3.28;;;;;;;21.27;40.77;94597.03;5098811;28;20625;-77
2022/09/19 08:38:11;;;;;;;5.15;3.38;;;;;;;21.26;41.31;94605.84;5097370;28;20292;-77
2022/09/19 08:41:04;;;;;;;6.70;4.18;;;;;;;21.38;41.25;94596.41;5105080;28;20221;-79
2022/09/19 08:43:38;;;;;;;7.85;3.60;;;;;;;21.40;41.04;94594.41;5046982;28;20364;-78
2022/09/19 08:46:14;;;;;;;5.70;3.15;;;;;;;21.41;40.91;94582.19;5045314;28;20238;-78
2022/09/19 08:48:50;;;;;;;7.70;3.92;;;;;;;21.19;41.14;94585.03;5045201;28;20191;-78
2022/09/19 08:51:24;;;;;;;7.82;4.15;;;;;;;21.02;41.97;94584.69;5045494;28;20202;-79
2022/09/19 08:53:56;;;;;;;7.53;4.38;;;;;;;20.84;42.68;94579.34;5039200;28;20625;-79
2022/09/19 08:56:25;;;;;;;6.97;4.15;;;;;;;20.70;42.33;94591.56;5036485;28;20195;-77
2022/09/19 08:59:01;;;;;;;9.52;3.72;;;;;;;20.47;43.15;94593.78;5039216;28;20705;-77
2022/09/19 09:01:34;;;;;;;8.98;3.78;;;;;;;20.31;42.99;94566.41;5045379;28;20300;-78
2022/09/19 09:04:14;;;;;;;6.13;4.13;;;;;;;20.18;42.75;94566.41;5044936;28;20693;-78
2022/09/19 09:06:53;;;;;;;5.57;3.90;;;;;;;19.98;43.24;94551.59;5043879;28;20230;-77
2022/09/19 09:09:34;;;;;;;5.33;3.70;;;;;;;20.20;43.65;94575.59;5048643;28;20281;-77
2022/09/19 09:12:17;;;;;;;7.53;4.27;;;;;;;20.03;43.61;94574.38;5029549;28;20194;-76
2022/09/19 09:14:57;;;;;;;4.70;3.50;;;;;;;20.02;43.91;94572.78;5047711;28;20222;-77
2022/09/19 09:17:31;;;;;;;14.10;4.13;;;;;;;19.86;44.15;94568.78;5045889;28;20202;-78
2022/09/19 09:20:26;;;;;;;9.73;4.07;;;;;;;19.74;44.82;94567.78;5052452;28;20193;-75
2022/09/19 09:23:05;;;;;;;8.13;3.93;;;;;;;19.72;45.08;94560.16;5103435;28;20282;-78
2022/09/19 09:25:43;;;;;;;7.87;3.70;;;;;;;19.67;44.87;94546.19;5102189;28;20208;-77
2022/09/19 09:28:18;;;;;;;6.07;4.23;;;;;;;19.72;45.14;94541.22;5096696;28;20784;-77
2022/09/19 09:30:54;;;;;;;6.10;3.77;;;;;;;19.90;44.74;94544.00;5106088;28;20192;-77
2022/09/19 09:33:29;;;;;;;7.40;4.07;;;;;;;19.85;44.70;94522.25;5101163;28;20663;-76
2022/09/19 09:36:03;;;;;;;6.00;3.78;;;;;;;19.82;44.19;94518.28;5099996;28;20587;-77
2022/09/19 09:38:34;;;;;;;11.57;4.00;;;;;;;19.49;44.55;94481.88;5094568;28;20263;-77
2022/09/19 09:44:07;;;;;;;8.57;4.80;;;;;;;19.70;44.49;94506.88;5107139;28;20189;-76
2022/09/19 09:46:54;;;;;;;5.27;3.73;;;;;;;19.70;44.62;94523.25;5102498;28;20212;-76
2022/09/19 09:49:22;;;;;;;8.87;4.10;;;;;;;19.65;44.71;94506.69;5102329;28;20656;-78
2022/09/19 09:52:03;;;;;;;6.07;3.63;;;;;;;19.72;44.26;94502.28;5101497;28;20236;-77
2022/09/19 09:57:36;;;;;;;12.80;4.57;;;;;;;19.74;44.53;94492.53;5098978;28;20185;-77
2022/09/19 10:05:51;;;;;;;5.47;3.60;;;;;;;19.91;43.48;94504.09;5096099;28;20244;-76
2022/09/19 10:08:27;;;;;;;5.87;3.70;;;;;;;19.75;43.41;94481.13;5101962;28;20192;-77
2022/09/19 10:11:04;;;;;;;5.13;3.80;;;;;;;19.58;44.00;94464.34;5106475;28;20193;-78
2022/09/19 10:13:38;;;;;;;15.57;4.37;;;;;;;19.91;43.79;94496.31;5096069;28;20197;-76
2022/09/19 10:16:08;;;;;;;5.50;3.67;;;;;;;19.95;44.07;94492.31;5097911;28;20384;-77
2022/09/19 10:18:45;;;;;;;9.27;4.03;;;;;;;20.05;44.05;94486.72;5093415;28;20235;-77
2022/09/19 10:21:13;;;;;;;5.97;3.67;;;;;;;20.19;43.47;94490.09;5096693;28;20735;-79
2022/09/19 10:23:45;;;;;;;5.05;3.28;;;;;;;20.16;43.18;94493.88;5097046;28;20768;-79
2022/09/19 10:26:15;;;;;;;7.18;3.53;;;;;;;20.18;43.10;94486.72;5092043;28;20209;-78
2022/09/19 10:28:49;;;;;;;7.40;3.63;;;;;;;20.18;42.37;94475.53;5102264;28;20185;-77
2022/09/19 10:31:25;;;;;;;7.50;3.60;;;;;;;20.10;42.93;94460.16;5100367;28;20193;-76
2022/09/19 10:33:53;;;;;;;4.95;3.33;;;;;;;20.18;42.04;94459.94;5107228;28;20193;-78
2022/09/19 10:36:22;;;;;;;11.47;3.53;;;;;;;20.24;42.12;94474.72;5104127;28;20202;-77
2022/09/19 10:38:58;;;;;;;4.75;3.00;;;;;;;20.19;41.92;94462.34;5098472;28;20190;-76
2022/09/19 10:41:27;;;;;;;4.07;3.13;;;;;;;20.15;42.28;94461.13;5101964;28;20189;-76
2022/09/19 10:43:57;;;;;;;7.15;3.20;;;;;;;19.91;41.60;94421.06;5099311;28;20553;-77
2022/09/19 10:46:31;;;;;;;5.55;3.60;;;;;;;20.05;41.97;94453.78;5091132;28;20259;-77
2022/09/19 10:48:59;;;;;;;4.88;3.10;;;;;;;19.98;42.49;94452.19;5096133;28;20260;-77
2022/09/19 10:51:33;;;;;;;9.77;3.28;;;;;;;19.96;42.28;94421.25;5096969;28;20714;-77
2022/09/19 10:54:01;;;;;;;9.30;3.65;;;;;;;19.71;42.39;94415.06;5094204;28;20193;-76
2022/09/19 10:56:33;;;;;;;8.50;3.67;;;;;;;19.78;42.64;94439.22;5092285;28;20196;-77
2022/09/19 10:59:05;;;;;;;6.03;3.43;;;;;;;19.94;41.92;94433.59;5090933;28;20197;-76
2022/09/19 11:01:33;;;;;;;5.63;2.95;;;;;;;19.97;41.84;94430.63;5102174;28;20193;-77
2022/09/19 11:04:03;;;;;;;4.15;3.05;;;;;;;20.13;41.72;94424.22;5094871;28;20198;-76
2022/09/19 11:06:31;;;;;;;5.75;3.28;;;;;;;20.21;41.03;94418.00;5100320;28;20232;-77
2022/09/19 11:08:59;;;;;;;5.20;3.17;;;;;;;20.13;40.53;94385.25;5100266;28;20197;-77
2022/09/19 11:11:45;;;;;;;4.03;2.45;;;;;;;20.43;40.52;94408.94;5099972;28;20943;-76
2022/09/19 11:14:19;;;;;;;5.75;3.00;;;;;;;20.49;40.60;94408.13;5090522;28;20224;-77
2022/09/19 11:17:16;;;;;;;6.38;2.90;;;;;;;20.59;40.61;94405.09;5096095;28;20189;-78
2022/09/19 11:20:00;;;;;;;7.88;3.00;;;;;;;20.66;39.34;94411.06;5093020;28;20660;-77
2022/09/19 11:22:39;;;;;;;4.28;3.03;;;;;;;20.66;39.35;94399.88;5091692;28;20246;-78
2022/09/19 11:25:20;;;;;;;8.48;2.28;;;;;;;20.66;39.01;94403.28;5088731;28;20640;-77
2022/09/19 11:27:59;;;;;;;4.28;2.80;;;;;;;20.57;39.03;94365.56;5107483;28;20216;-78
2022/09/19 11:30:28;;;;;;;6.68;2.97;;;;;;;20.73;38.74;94378.06;5099390;28;20191;-79
2022/09/19 11:33:21;;;;;;;4.85;2.92;;;;;;;20.78;38.32;94388.63;5089210;28;20564;-76
2022/09/19 11:35:55;;;;;;;5.25;2.67;;;;;;;20.83;38.55;94389.81;5100189;28;20188;-78
2022/09/19 11:38:34;;;;;;;5.65;2.85;;;;;;;20.88;37.77;94385.56;5099694;28;20575;-75
2022/09/19 11:41:23;;;;;;;7.25;2.53;;;;;;;20.93;37.56;94385.75;5074491;28;20203;-78
2022/09/19 11:44:02;;;;;;;5.68;2.45;;;;;;;20.97;36.90;94376.50;5097257;28;20196;-79
2022/09/19 11:46:40;;;;;;;9.32;2.35;;;;;;;20.86;36.37;94356.41;5090663;28;20711;-78
2022/09/19 11:49:51;;;;;;;4.93;2.67;;;;;;;20.93;36.06;94372.75;5098512;28;20656;-78
2022/09/19 11:52:31;;;;;;;2.65;2.13;;;;;;;20.96;36.58;94371.53;5006128;28;20293;-75
2022/09/19 11:55:11;;;;;;;4.43;2.33;;;;;;;20.93;36.72;94358.94;5010186;28;20200;-78
2022/09/19 11:57:47;;;;;;;3.15;2.50;;;;;;;20.98;37.10;94361.72;5009800;28;20192;-78
2022/09/19 12:00:18;;;;;;;5.05;1.73;;;;;;;21.11;35.93;94374.63;5017726;28;20207;-78
2022/09/19 12:03:10;;;;;;;2.88;2.22;;;;;;;21.05;36.38;94359.88;5010046;28;20609;-79
2022/09/19 12:05:53;;;;;;;3.15;1.90;;;;;;;20.93;36.23;94345.94;5015048;28;20199;-80
2022/09/19 12:08:31;;;;;;;4.28;1.90;;;;;;;20.97;35.14;94336.72;5017862;28;20797;-78
2022/09/19 12:11:05;;;;;;;5.75;2.20;;;;;;;21.13;35.36;94343.22;5007218;28;20196;-77
2022/09/19 12:13:42;;;;;;;3.05;2.30;;;;;;;20.86;35.56;94286.22;5017317;28;20200;-78
2022/09/19 12:16:13;;;;;;;3.22;2.28;;;;;;;21.29;36.09;94348.72;5018915;28;20202;-79